Time;durP1;ratioP1;P1;durP2;ratioP2;P2;SDS_P1;SDS_P2;PMS_P1;PMS_P2;Temp;Humidity;BMP_temperature;BMP_pressure;BME280_temperature;BME280_humidity;BME280_pressure;Samples;Min_cycle;Max_cycle;Signal;HPM_P1;HPM_P2
2022/06/19 00:00:44;;;;;;;13.55;2.85;;;;;;;;;;5076529;28;20130;-82
2022/06/19 00:03:13;;;;;;;10.57;2.80;;;;;;;;;;5109219;27;20065;-82
2022/06/19 00:05:39;;;;;;;12.18;2.80;;;;;;;;;;5076249;28;20035;-82
2022/06/19 00:08:05;;;;;;;9.07;2.15;;;;;;;;;;5076568;28;20450;-82
2022/06/19 00:10:31;;;;;;;10.93;2.75;;;;;;;;;;5076499;28;20035;-82
2022/06/19 00:12:58;;;;;;;9.82;2.70;;;;;;;;;;5095138;27;20122;-82
2022/06/19 00:15:24;;;;;;;12.90;3.08;;;;;;;;;;5107173;28;20511;-82
2022/06/19 00:17:50;;;;;;;14.00;2.83;;;;;;;;;;5086834;27;20043;-83
2022/06/19 00:20:16;;;;;;;15.05;2.85;;;;;;;;;;5083409;28;20465;-83
2022/06/19 00:22:42;;;;;;;14.45;3.13;;;;;;;;;;5077370;27;20431;-83
2022/06/19 00:25:09;;;;;;;9.68;2.47;;;;;;;;;;5113892;27;20036;-83
2022/06/19 00:27:39;;;;;;;12.65;2.92;;;;;;;;;;5105476;28;20122;-83
2022/06/19 00:30:06;;;;;;;11.38;2.70;;;;;;;;;;5075295;28;20130;-82
2022/06/19 00:32:33;;;;;;;10.32;2.60;;;;;;;;;;5109456;27;20100;-82
2022/06/19 00:34:59;;;;;;;13.07;2.88;;;;;;;;;;5093203;28;20046;-82
2022/06/19 00:37:25;;;;;;;11.75;2.75;;;;;;;;;;5104384;27;20058;-83
2022/06/19 00:39:52;;;;;;;10.68;2.42;;;;;;;;;;5113298;27;20037;-82
2022/06/19 00:42:18;;;;;;;9.95;2.72;;;;;;;;;;5113633;27;20040;-82
2022/06/19 00:44:44;;;;;;;9.93;2.35;;;;;;;;;;5109502;28;20067;-82
2022/06/19 00:47:18;;;;;;;11.20;2.47;;;;;;;;;;5092709;28;20266;-82
2022/06/19 00:49:53;;;;;;;9.10;2.30;;;;;;;;;;5123527;27;20036;-82
2022/06/19 00:52:25;;;;;;;9.45;2.38;;;;;;;;;;5130698;27;20122;-82
2022/06/19 00:55:05;;;;;;;8.18;1.90;;;;;;;;;;5114156;27;20482;-82
2022/06/19 00:57:33;;;;;;;7.68;1.88;;;;;;;;;;5114230;27;20081;-83
2022/06/19 01:00:01;;;;;;;9.88;2.00;;;;;;;;;;5097223;27;20039;-82
2022/06/19 01:02:27;;;;;;;9.48;2.22;;;;;;;;;;5124562;27;20035;-83
2022/06/19 01:04:55;;;;;;;8.15;1.73;;;;;;;;;;5102412;27;20035;-82
2022/06/19 01:07:26;;;;;;;8.13;2.20;;;;;;;;;;5115249;27;20041;-82
2022/06/19 01:09:52;;;;;;;8.65;2.10;;;;;;;;;;5096884;28;20508;-82
2022/06/19 01:12:19;;;;;;;9.93;2.08;;;;;;;;;;5099373;27;20074;-82
2022/06/19 01:14:46;;;;;;;9.02;1.90;;;;;;;;;;5114096;27;20130;-82
2022/06/19 01:17:14;;;;;;;8.85;1.80;;;;;;;;;;5099374;28;20042;-81
2022/06/19 01:19:41;;;;;;;8.70;1.80;;;;;;;;;;5092501;28;20547;-82
2022/06/19 01:22:17;;;;;;;10.07;1.90;;;;;;;;;;5092906;28;20089;-82
2022/06/19 01:24:53;;;;;;;10.95;2.33;;;;;;;;;;5103037;27;20057;-83
2022/06/19 01:30:08;;;;;;;9.18;2.08;;;;;;;;;;5100049;28;20083;-83
2022/06/19 01:32:36;;;;;;;11.52;2.58;;;;;;;;;;5113147;28;20043;-84
2022/06/19 01:35:03;;;;;;;10.98;2.50;;;;;;;;;;5098561;28;20371;-83
2022/06/19 01:37:29;;;;;;;8.30;2.00;;;;;;;;;;5094722;28;20032;-84
2022/06/19 01:40:25;;;;;;;9.48;2.03;;;;;;;;;;5106407;28;20044;-82
2022/06/19 01:42:51;;;;;;;11.52;2.22;;;;;;;;;;5085985;28;20441;-82
2022/06/19 01:45:18;;;;;;;13.63;2.20;;;;;;;;;;5113587;28;20043;-82
2022/06/19 01:47:44;;;;;;;11.68;2.42;;;;;;;;;;5113354;28;20077;-80
2022/06/19 01:50:13;;;;;;;13.15;2.75;;;;;;;;;;5112458;28;20032;-81
2022/06/19 01:52:39;;;;;;;11.93;2.42;;;;;;;;;;5112684;28;20123;-83
2022/06/19 01:55:14;;;;;;;12.05;2.67;;;;;;;;;;5095904;28;20071;-81
2022/06/19 01:57:46;;;;;;;13.85;2.67;;;;;;;;;;5113078;28;20043;-81
2022/06/19 02:00:14;;;;;;;12.70;2.85;;;;;;;;;;5113239;28;20047;-82
2022/06/19 02:02:43;;;;;;;9.10;2.85;;;;;;;;;;5098142;28;20130;-81
2022/06/19 02:05:09;;;;;;;18.88;3.08;;;;;;;;;;5125799;28;20453;-81
2022/06/19 02:07:36;;;;;;;16.55;3.40;;;;;;;;;;5099716;27;20046;-81
2022/06/19 02:10:03;;;;;;;11.07;2.60;;;;;;;;;;5116664;27;20031;-82
2022/06/19 02:12:39;;;;;;;14.05;2.95;;;;;;;;;;5111965;27;20035;-83
2022/06/19 02:15:08;;;;;;;13.88;2.70;;;;;;;;;;5099699;27;20398;-80
2022/06/19 02:17:39;;;;;;;12.55;2.58;;;;;;;;;;5108225;28;20074;-82
2022/06/19 02:20:09;;;;;;;12.93;2.45;;;;;;;;;;5125331;27;20042;-81
2022/06/19 02:22:35;;;;;;;13.35;3.45;;;;;;;;;;5099791;28;20051;-81
2022/06/19 02:25:01;;;;;;;10.35;2.53;;;;;;;;;;5101620;27;20043;-81
2022/06/19 02:27:28;;;;;;;10.65;2.65;;;;;;;;;;5125298;27;20398;-83
2022/06/19 02:29:54;;;;;;;14.27;2.88;;;;;;;;;;5108736;27;20043;-82
2022/06/19 02:32:26;;;;;;;13.95;3.00;;;;;;;;;;5098735;28;20254;-82
2022/06/19 02:34:53;;;;;;;10.60;2.55;;;;;;;;;;5110497;28;20050;-83
2022/06/19 02:37:21;;;;;;;11.73;2.83;;;;;;;;;;5096192;28;20127;-81
2022/06/19 02:40:06;;;;;;;14.73;3.05;;;;;;;;;;5095663;28;20035;-83
2022/06/19 02:42:35;;;;;;;13.15;2.75;;;;;;;;;;5111737;27;20043;-84
2022/06/19 02:45:02;;;;;;;10.02;2.80;;;;;;;;;;5095611;28;20047;-81
2022/06/19 02:47:30;;;;;;;15.05;3.10;;;;;;;;;;5096614;28;20142;-82
2022/06/19 02:49:57;;;;;;;15.50;3.17;;;;;;;;;;5111981;27;20043;-86
2022/06/19 02:52:23;;;;;;;14.98;3.40;;;;;;;;;;5116580;27;20142;-84
2022/06/19 02:54:50;;;;;;;10.85;3.10;;;;;;;;;;5132867;27;20433;-82
2022/06/19 02:57:17;;;;;;;14.25;3.67;;;;;;;;;;5121011;27;20131;-83
2022/06/19 02:59:43;;;;;;;15.13;3.95;;;;;;;;;;5095181;28;20039;-84
2022/06/19 03:02:11;;;;;;;13.43;3.28;;;;;;;;;;5128698;27;20035;-85
2022/06/19 03:04:40;;;;;;;13.00;3.50;;;;;;;;;;5101503;27;20031;-85
2022/06/19 03:07:06;;;;;;;15.43;3.65;;;;;;;;;;5120735;27;20288;-87
2022/06/19 03:09:33;;;;;;;14.43;3.72;;;;;;;;;;5111312;28;20035;-86
2022/06/19 03:11:59;;;;;;;16.85;3.70;;;;;;;;;;5130125;27;20118;-86
2022/06/19 03:14:25;;;;;;;18.35;3.55;;;;;;;;;;5107262;28;20078;-86
2022/06/19 03:16:52;;;;;;;16.63;4.20;;;;;;;;;;5103660;27;20126;-86
2022/06/19 03:19:18;;;;;;;13.25;3.30;;;;;;;;;;5130975;27;20402;-83
2022/06/19 03:21:45;;;;;;;12.27;3.97;;;;;;;;;;5111453;27;20042;-83
2022/06/19 03:24:11;;;;;;;12.57;3.22;;;;;;;;;;5116985;27;20122;-84
2022/06/19 03:26:38;;;;;;;12.98;3.30;;;;;;;;;;5128786;27;20394;-85
2022/06/19 03:29:04;;;;;;;14.30;2.75;;;;;;;;;;5116487;27;20629;-83
2022/06/19 03:31:31;;;;;;;13.77;3.33;;;;;;;;;;5095969;27;20040;-84
2022/06/19 03:33:57;;;;;;;13.55;3.45;;;;;;;;;;5125526;27;20517;-86
2022/06/19 03:36:24;;;;;;;15.15;3.20;;;;;;;;;;5102023;27;20045;-84
2022/06/19 03:38:51;;;;;;;12.13;2.95;;;;;;;;;;5083839;28;20039;-85
2022/06/19 03:41:17;;;;;;;14.98;3.83;;;;;;;;;;5110784;27;20049;-85
2022/06/19 03:43:43;;;;;;;17.35;3.40;;;;;;;;;;5108304;28;20054;-84
2022/06/19 03:46:15;;;;;;;15.18;3.33;;;;;;;;;;5101558;27;20057;-84
2022/06/19 03:48:42;;;;;;;14.20;3.05;;;;;;;;;;5099749;28;20036;-83
2022/06/19 03:51:08;;;;;;;15.60;3.70;;;;;;;;;;5094287;27;20255;-83
2022/06/19 03:53:35;;;;;;;14.75;3.30;;;;;;;;;;5107935;28;20101;-83
2022/06/19 03:56:02;;;;;;;13.80;3.20;;;;;;;;;;5093559;28;20040;-81
2022/06/19 03:58:45;;;;;;;15.82;2.92;;;;;;;;;;5094930;28;20509;-81
2022/06/19 04:01:17;;;;;;;13.52;3.15;;;;;;;;;;5093577;27;20048;-82
2022/06/19 04:03:45;;;;;;;16.50;3.60;;;;;;;;;;5102654;27;20050;-83
2022/06/19 04:06:12;;;;;;;12.95;2.83;;;;;;;;;;5084981;28;20074;-84
2022/06/19 04:08:39;;;;;;;16.45;2.92;;;;;;;;;;5092782;27;20266;-84
2022/06/19 04:11:05;;;;;;;11.50;2.78;;;;;;;;;;5115183;27;20039;-85
2022/06/19 04:13:35;;;;;;;11.57;3.72;;;;;;;;;;5106163;28;20046;-86
2022/06/19 04:16:06;;;;;;;13.25;3.28;;;;;;;;;;5105877;27;20204;-86
2022/06/19 04:18:33;;;;;;;15.60;3.17;;;;;;;;;;5096469;28;20043;-84
2022/06/19 04:21:00;;;;;;;12.20;3.33;;;;;;;;;;5109154;28;20040;-84
2022/06/19 04:23:26;;;;;;;13.15;2.95;;;;;;;;;;5092838;28;20411;-87
2022/06/19 04:25:53;;;;;;;12.98;3.13;;;;;;;;;;5104900;27;20448;-85
2022/06/19 04:28:22;;;;;;;15.40;3.92;;;;;;;;;;5112565;27;20055;-84
2022/06/19 04:30:49;;;;;;;14.27;3.67;;;;;;;;;;5063257;27;20100;-86
2022/06/19 04:33:15;;;;;;;12.45;3.70;;;;;;;;;;5087416;28;20563;-86
2022/06/19 04:35:42;;;;;;;12.57;3.78;;;;;;;;;;5104018;27;20569;-84
2022/06/19 04:38:08;;;;;;;12.75;3.00;;;;;;;;;;5079868;28;20231;-85
2022/06/19 04:40:35;;;;;;;18.80;3.95;;;;;;;;;;5091624;28;20075;-85
2022/06/19 04:43:01;;;;;;;14.35;3.92;;;;;;;;;;5099428;27;20043;-84
2022/06/19 04:45:27;;;;;;;19.58;3.85;;;;;;;;;;5083789;28;20072;-87
2022/06/19 04:47:53;;;;;;;16.65;3.80;;;;;;;;;;5090066;27;20042;-84
2022/06/19 04:50:20;;;;;;;13.93;3.67;;;;;;;;;;5095166;27;20161;-85
2022/06/19 04:52:46;;;;;;;16.00;4.90;;;;;;;;;;5088060;28;20032;-86
2022/06/19 04:55:13;;;;;;;14.85;5.47;;;;;;;;;;5085725;27;20043;-85
2022/06/19 04:57:39;;;;;;;19.50;4.55;;;;;;;;;;5080363;28;20508;-86
2022/06/19 05:00:07;;;;;;;16.80;4.00;;;;;;;;;;5090911;27;20039;-87
2022/06/19 05:02:34;;;;;;;13.50;3.13;;;;;;;;;;5097540;27;20122;-86
2022/06/19 05:05:00;;;;;;;11.27;3.25;;;;;;;;;;5101568;28;20043;-86
2022/06/19 05:07:32;;;;;;;13.18;3.20;;;;;;;;;;5106034;27;20124;-86
2022/06/19 05:09:59;;;;;;;15.10;3.55;;;;;;;;;;5095450;27;20047;-85
2022/06/19 05:12:25;;;;;;;12.23;2.90;;;;;;;;;;5089269;28;20486;-84
2022/06/19 05:14:53;;;;;;;10.73;2.80;;;;;;;;;;5085340;27;20035;-85
2022/06/19 05:17:19;;;;;;;13.77;2.58;;;;;;;;;;5080508;28;20031;-84
2022/06/19 05:19:45;;;;;;;10.63;2.42;;;;;;;;;;5094866;27;20035;-83
2022/06/19 05:22:12;;;;;;;9.77;2.00;;;;;;;;;;5095326;27;20166;-85
2022/06/19 05:24:38;;;;;;;7.22;1.83;;;;;;;;;;5101696;28;20039;-82
2022/06/19 05:27:09;;;;;;;8.05;1.77;;;;;;;;;;5105973;27;20092;-85
2022/06/19 05:29:36;;;;;;;8.35;1.95;;;;;;;;;;5075584;28;20056;-84
2022/06/19 05:32:04;;;;;;;7.70;2.03;;;;;;;;;;5098015;27;20436;-81
2022/06/19 05:34:31;;;;;;;10.32;2.28;;;;;;;;;;5111986;28;20096;-84
2022/06/19 05:36:57;;;;;;;8.88;2.28;;;;;;;;;;5097850;28;20075;-84
2022/06/19 05:39:23;;;;;;;8.40;2.05;;;;;;;;;;5108608;28;20051;-84
2022/06/19 05:41:49;;;;;;;13.15;2.53;;;;;;;;;;5098618;28;20071;-81
2022/06/19 05:44:16;;;;;;;9.25;2.38;;;;;;;;;;5102396;28;20093;-84
2022/06/19 05:46:42;;;;;;;12.38;2.58;;;;;;;;;;5105661;28;20042;-83
2022/06/19 05:49:08;;;;;;;10.57;2.28;;;;;;;;;;5112304;28;20031;-82
2022/06/19 05:51:34;;;;;;;12.38;2.15;;;;;;;;;;5114182;28;20084;-81
2022/06/19 05:54:01;;;;;;;11.35;2.50;;;;;;;;;;5113117;28;20385;-84
2022/06/19 05:56:28;;;;;;;15.60;3.35;;;;;;;;;;5129414;28;20118;-83
2022/06/19 05:58:54;;;;;;;13.32;3.03;;;;;;;;;;5112987;28;20616;-83
2022/06/19 06:01:22;;;;;;;9.35;2.47;;;;;;;;;;5125955;28;20514;-83
2022/06/19 06:03:48;;;;;;;11.27;2.80;;;;;;;;;;5108448;28;20066;-83
2022/06/19 06:06:17;;;;;;;10.40;2.63;;;;;;;;;;5091327;28;20039;-83
2022/06/19 06:08:43;;;;;;;10.65;2.70;;;;;;;;;;5126492;28;20042;-84
2022/06/19 06:11:09;;;;;;;13.05;2.90;;;;;;;;;;5112626;28;20067;-84
2022/06/19 06:13:35;;;;;;;11.85;2.72;;;;;;;;;;5113678;28;20043;-84
2022/06/19 06:16:02;;;;;;;15.73;2.95;;;;;;;;;;5099765;28;20130;-83
2022/06/19 06:18:28;;;;;;;12.35;3.10;;;;;;;;;;5107591;28;20062;-85
2022/06/19 06:21:02;;;;;;;11.70;3.00;;;;;;;;;;5095143;28;20117;-84
2022/06/19 06:23:29;;;;;;;13.10;2.65;;;;;;;;;;5120066;28;20097;-83
2022/06/19 06:26:03;;;;;;;14.15;3.30;;;;;;;;;;5091751;28;20046;-85
2022/06/19 06:28:30;;;;;;;13.00;2.67;;;;;;;;;;5110542;28;20062;-83
2022/06/19 06:30:56;;;;;;;14.38;3.50;;;;;;;;;;5112236;28;20039;-83
2022/06/19 06:33:22;;;;;;;13.88;3.05;;;;;;;;;;5119834;28;20552;-84
2022/06/19 06:35:48;;;;;;;14.48;3.20;;;;;;;;;;5092286;28;20486;-83
2022/06/19 06:38:14;;;;;;;14.93;3.33;;;;;;;;;;5109090;28;20429;-83
2022/06/19 06:40:41;;;;;;;15.55;3.63;;;;;;;;;;5112912;28;20042;-84
2022/06/19 06:43:07;;;;;;;14.75;3.10;;;;;;;;;;5112542;28;20039;-83
2022/06/19 06:45:34;;;;;;;12.50;3.22;;;;;;;;;;5116376;28;20043;-83
2022/06/19 06:48:00;;;;;;;11.15;2.90;;;;;;;;;;5108847;28;20032;-83
2022/06/19 06:50:27;;;;;;;16.23;3.17;;;;;;;;;;5096609;28;20138;-83
2022/06/19 06:52:53;;;;;;;19.73;3.35;;;;;;;;;;5105803;28;20130;-83
2022/06/19 06:55:20;;;;;;;14.30;2.85;;;;;;;;;;5104620;27;20185;-85
2022/06/19 06:57:46;;;;;;;13.20;2.72;;;;;;;;;;5098216;28;20133;-79
2022/06/19 07:00:15;;;;;;;9.52;2.63;;;;;;;;;;5110559;28;20442;-79
2022/06/19 07:02:42;;;;;;;13.13;2.88;;;;;;;;;;5103208;27;20046;-84
2022/06/19 07:05:08;;;;;;;12.02;3.13;;;;;;;;;;5117536;27;20520;-82
2022/06/19 07:07:34;;;;;;;10.15;2.85;;;;;;;;;;5134820;27;20031;-81
2022/06/19 07:10:00;;;;;;;14.88;2.83;;;;;;;;;;5098737;28;20042;-81
2022/06/19 07:12:27;;;;;;;10.15;2.95;;;;;;;;;;5097272;28;20035;-82
2022/06/19 07:14:53;;;;;;;12.07;3.40;;;;;;;;;;5108039;27;20053;-82
2022/06/19 07:17:19;;;;;;;10.63;2.80;;;;;;;;;;5103440;28;20040;-82
2022/06/19 07:19:46;;;;;;;14.50;3.13;;;;;;;;;;5114930;28;20514;-82
2022/06/19 07:22:14;;;;;;;12.57;2.63;;;;;;;;;;5098638;28;20047;-81
2022/06/19 07:24:40;;;;;;;11.30;3.05;;;;;;;;;;5098123;28;20040;-81
2022/06/19 07:27:06;;;;;;;15.82;3.13;;;;;;;;;;5116119;28;20039;-82
2022/06/19 07:29:33;;;;;;;14.15;3.15;;;;;;;;;;5098596;28;20059;-82
2022/06/19 07:31:59;;;;;;;15.45;3.28;;;;;;;;;;5097018;28;20084;-82
2022/06/19 07:34:25;;;;;;;11.77;3.08;;;;;;;;;;5101084;28;20035;-82
2022/06/19 07:36:51;;;;;;;8.27;2.92;;;;;;;;;;5097641;28;20050;-82
2022/06/19 07:39:19;;;;;;;10.80;2.92;;;;;;;;;;5133969;27;20066;-82
2022/06/19 07:41:45;;;;;;;13.82;3.05;;;;;;;;;;5122514;27;20588;-83
2022/06/19 07:44:11;;;;;;;15.70;3.22;;;;;;;;;;5119867;27;20087;-82
2022/06/19 07:50:09;;;;;;;11.43;3.35;;;;;;;;;;5119915;27;20054;-81
2022/06/19 07:50:09;;;;;;;13.68;3.25;;;;;;;;;;5138317;27;20448;-81
2022/06/19 07:52:10;;;;;;;13.65;3.33;;;;;;;;;;5128155;27;20039;-81
2022/06/19 07:54:36;;;;;;;11.80;2.80;;;;;;;;;;5119655;27;20058;-80
2022/06/19 07:57:03;;;;;;;10.88;2.92;;;;;;;;;;5141235;27;20134;-80
2022/06/19 07:59:29;;;;;;;11.73;3.25;;;;;;;;;;5137271;27;20035;-80
2022/06/19 08:01:55;;;;;;;13.52;3.65;;;;;;;;;;5123556;27;20045;-81
2022/06/19 08:04:21;;;;;;;12.75;3.42;;;;;;;;;;5138209;27;20046;-81
2022/06/19 08:06:48;;;;;;;11.95;3.20;;;;;;;;;;5137719;27;20082;-80
2022/06/19 08:09:14;;;;;;;15.73;3.90;;;;;;;;;;5118728;28;20082;-81
2022/06/19 08:11:40;;;;;;;11.68;3.38;;;;;;;;;;5124309;27;20436;-81
2022/06/19 08:14:06;;;;;;;15.77;3.42;;;;;;;;;;5135845;27;20527;-81
2022/06/19 08:16:34;;;;;;;15.73;3.30;;;;;;;;;;5115129;27;20039;-82
2022/06/19 08:19:00;;;;;;;11.98;3.50;;;;;;;;;;5116671;27;20417;-82
2022/06/19 08:21:26;;;;;;;13.65;3.42;;;;;;;;;;5107072;28;20067;-82
2022/06/19 08:23:53;;;;;;;14.20;3.15;;;;;;;;;;5124593;27;20172;-83
2022/06/19 08:26:19;;;;;;;14.45;4.03;;;;;;;;;;5098152;28;20075;-82
2022/06/19 08:31:23;;;;;;;13.55;3.28;;;;;;;;;;5105696;28;20533;-82
2022/06/19 08:33:49;;;;;;;11.50;2.97;;;;;;;;;;5124158;27;20043;-81
2022/06/19 08:36:16;;;;;;;14.82;3.40;;;;;;;;;;5113545;27;20050;-82
2022/06/19 08:38:50;;;;;;;13.15;3.10;;;;;;;;;;5115567;27;20085;-81
2022/06/19 08:41:19;;;;;;;9.98;2.88;;;;;;;;;;5113538;27;20042;-83
2022/06/19 08:43:54;;;;;;;8.60;3.35;;;;;;;;;;5116824;27;20048;-83
2022/06/19 08:46:20;;;;;;;11.18;3.20;;;;;;;;;;5109784;28;20187;-81
2022/06/19 08:48:46;;;;;;;15.82;3.15;;;;;;;;;;5101242;27;20069;-81
2022/06/19 08:51:15;;;;;;;14.23;3.38;;;;;;;;;;5119710;27;20514;-82
2022/06/19 08:53:48;;;;;;;8.35;2.70;;;;;;;;;;5093854;28;20042;-81
2022/06/19 08:56:26;;;;;;;8.95;2.95;;;;;;;;;;5113489;27;20043;-83
2022/06/19 08:58:57;;;;;;;12.23;3.13;;;;;;;;;;5104209;28;20039;-83
2022/06/19 09:01:23;;;;;;;11.60;3.33;;;;;;;;;;5093228;28;20035;-81
2022/06/19 09:06:40;;;;;;;11.73;3.13;;;;;;;;;;5116979;27;20047;-82
2022/06/19 09:09:16;;;;;;;12.77;3.42;;;;;;;;;;5102550;28;20102;-82
2022/06/19 09:11:48;;;;;;;14.90;3.70;;;;;;;;;;5111927;27;20058;-82
2022/06/19 09:14:27;;;;;;;10.50;3.33;;;;;;;;;;5112099;27;20042;-84
2022/06/19 09:17:01;;;;;;;12.50;3.50;;;;;;;;;;5118172;27;20048;-82
2022/06/19 09:19:30;;;;;;;16.88;3.47;;;;;;;;;;5108300;28;20495;-83
2022/06/19 09:22:02;;;;;;;11.07;3.70;;;;;;;;;;5092091;28;20499;-82
2022/06/19 09:24:47;;;;;;;11.55;3.90;;;;;;;;;;5109539;28;20035;-81
2022/06/19 09:27:16;;;;;;;9.70;3.40;;;;;;;;;;5094132;28;20126;-82
2022/06/19 09:29:53;;;;;;;11.38;4.07;;;;;;;;;;5127764;27;20082;-81
2022/06/19 09:32:31;;;;;;;8.80;3.10;;;;;;;;;;5111741;28;20104;-81
2022/06/19 09:35:13;;;;;;;9.40;2.53;;;;;;;;;;5093176;28;20368;-82
2022/06/19 09:38:08;;;;;;;11.00;2.17;;;;;;;;;;5092875;28;20046;-82
2022/06/19 09:40:37;;;;;;;9.50;2.22;;;;;;;;;;5084057;28;20047;-82
2022/06/19 09:43:22;;;;;;;9.07;2.25;;;;;;;;;;5096199;28;20093;-83
2022/06/19 09:45:48;;;;;;;9.63;2.35;;;;;;;;;;5124531;28;20146;-81
2022/06/19 09:48:27;;;;;;;11.73;2.58;;;;;;;;;;5094594;28;20078;-80
2022/06/19 09:51:05;;;;;;;11.15;2.30;;;;;;;;;;5112117;28;20035;-80
2022/06/19 09:53:42;;;;;;;10.48;2.30;;;;;;;;;;5093767;28;20046;-82
2022/06/19 09:56:08;;;;;;;10.93;1.90;;;;;;;;;;5112309;28;20411;-81
2022/06/19 09:58:41;;;;;;;8.80;2.08;;;;;;;;;;5095079;28;20122;-81
2022/06/19 10:01:07;;;;;;;10.93;2.83;;;;;;;;;;5112046;28;20388;-80
2022/06/19 10:03:33;;;;;;;16.05;2.50;;;;;;;;;;5093395;28;20141;-82
2022/06/19 10:06:03;;;;;;;6.95;2.00;;;;;;;;;;5109362;28;20047;-82
2022/06/19 10:08:29;;;;;;;9.52;2.22;;;;;;;;;;5093371;28;20514;-82
2022/06/19 10:11:01;;;;;;;8.57;2.22;;;;;;;;;;5112799;28;20031;-85
2022/06/19 10:13:46;;;;;;;7.85;1.88;;;;;;;;;;5114900;28;20039;-81
2022/06/19 10:16:33;;;;;;;7.15;1.67;;;;;;;;;;5113997;28;20393;-81
2022/06/19 10:19:02;;;;;;;7.35;1.95;;;;;;;;;;5074324;28;20039;-80
2022/06/19 10:24:36;;;;;;;7.22;1.92;;;;;;;;;;5124700;28;20473;-81
2022/06/19 10:27:17;;;;;;;8.55;1.98;;;;;;;;;;5115716;28;20601;-81
2022/06/19 10:29:47;;;;;;;9.30;2.00;;;;;;;;;;5119415;28;20099;-82
2022/06/19 10:32:29;;;;;;;10.60;2.08;;;;;;;;;;5116704;28;20042;-81
2022/06/19 10:34:58;;;;;;;5.82;1.83;;;;;;;;;;5136108;27;20039;-85
2022/06/19 10:37:37;;;;;;;9.27;1.80;;;;;;;;;;5105702;28;20486;-82
2022/06/19 10:40:10;;;;;;;5.93;1.88;;;;;;;;;;5114048;28;20047;-81
2022/06/19 10:42:44;;;;;;;7.88;1.70;;;;;;;;;;5102803;27;20512;-82
2022/06/19 10:45:13;;;;;;;7.63;1.83;;;;;;;;;;5122817;27;20039;-82
2022/06/19 10:47:49;;;;;;;9.35;1.75;;;;;;;;;;5095744;28;20036;-81
2022/06/19 10:50:27;;;;;;;9.18;2.22;;;;;;;;;;5099211;27;20043;-82
2022/06/19 10:52:54;;;;;;;7.30;1.50;;;;;;;;;;5135120;27;20107;-81
2022/06/19 10:55:35;;;;;;;7.25;2.03;;;;;;;;;;5118376;27;20035;-82
2022/06/19 10:58:21;;;;;;;6.65;1.85;;;;;;;;;;5081801;28;20040;-80
2022/06/19 11:01:07;;;;;;;7.00;1.40;;;;;;;;;;5098617;28;20032;-82
2022/06/19 11:04:08;;;;;;;6.32;1.60;;;;;;;;;;5117860;28;20040;-80
2022/06/19 11:07:01;;;;;;;7.50;1.70;;;;;;;;;;5093995;28;20040;-80
2022/06/19 11:09:31;;;;;;;8.05;1.60;;;;;;;;;;5078646;28;20050;-82
2022/06/19 11:12:04;;;;;;;4.38;1.50;;;;;;;;;;5096721;28;20058;-80
2022/06/19 11:14:30;;;;;;;6.38;1.40;;;;;;;;;;5100430;28;20028;-81
2022/06/19 11:17:17;;;;;;;3.78;1.20;;;;;;;;;;5092918;28;20043;-82
2022/06/19 11:19:45;;;;;;;6.35;1.60;;;;;;;;;;5083961;27;20126;-82
2022/06/19 11:22:41;;;;;;;5.93;1.33;;;;;;;;;;5110918;28;20043;-81
2022/06/19 11:25:19;;;;;;;3.75;1.50;;;;;;;;;;5112533;27;20055;-83
2022/06/19 11:27:51;;;;;;;7.78;1.63;;;;;;;;;;5078201;28;20036;-83
2022/06/19 11:30:32;;;;;;;4.63;1.25;;;;;;;;;;5092979;27;20086;-81
2022/06/19 11:32:59;;;;;;;4.93;1.30;;;;;;;;;;5117464;27;20545;-80
2022/06/19 11:35:25;;;;;;;5.53;1.15;;;;;;;;;;5116298;27;20043;-80
2022/06/19 11:37:55;;;;;;;6.57;1.55;;;;;;;;;;5109139;28;20039;-82
2022/06/19 11:40:36;;;;;;;5.78;1.30;;;;;;;;;;5125658;27;20043;-80
2022/06/19 11:43:04;;;;;;;6.47;1.30;;;;;;;;;;5118844;27;20182;-82
2022/06/19 11:45:35;;;;;;;2.47;0.90;;;;;;;;;;5102444;27;20058;-82
2022/06/19 11:48:07;;;;;;;2.45;1.00;;;;;;;;;;5108762;28;20039;-83
2022/06/19 11:50:33;;;;;;;5.03;1.17;;;;;;;;;;5113710;28;20044;-82
2022/06/19 11:53:02;;;;;;;4.30;0.90;;;;;;;;;;5113235;27;20111;-83
2022/06/19 11:55:38;;;;;;;3.65;0.90;;;;;;;;;;5099351;28;20043;-83
2022/06/19 11:58:04;;;;;;;5.10;0.90;;;;;;;;;;5097836;28;20069;-82
2022/06/19 12:00:35;;;;;;;2.38;0.82;;;;;;;;;;5097730;28;20042;-82
2022/06/19 12:03:16;;;;;;;3.47;0.80;;;;;;;;;;5122321;27;20081;-82
2022/06/19 12:05:50;;;;;;;3.95;1.05;;;;;;;;;;5134924;27;20047;-82
2022/06/19 12:08:22;;;;;;;3.97;1.00;;;;;;;;;;5103612;28;20084;-82
2022/06/19 12:10:53;;;;;;;2.42;1.02;;;;;;;;;;5128775;27;20759;-83
2022/06/19 12:13:22;;;;;;;3.17;0.80;;;;;;;;;;5094707;28;20039;-84
2022/06/19 12:16:03;;;;;;;3.78;1.00;;;;;;;;;;5096354;28;20487;-82
2022/06/19 12:18:30;;;;;;;4.93;1.08;;;;;;;;;;5128037;27;20069;-82
2022/06/19 12:21:01;;;;;;;4.93;1.30;;;;;;;;;;5112502;28;20127;-83
2022/06/19 12:23:42;;;;;;;3.72;1.00;;;;;;;;;;5096067;28;20043;-81
2022/06/19 12:26:14;;;;;;;3.72;1.15;;;;;;;;;;5113588;27;20122;-82
2022/06/19 12:28:40;;;;;;;3.53;1.13;;;;;;;;;;5135226;27;20055;-82
2022/06/19 12:31:13;;;;;;;3.67;1.40;;;;;;;;;;5118331;27;20038;-82
2022/06/19 12:33:58;;;;;;;2.65;1.15;;;;;;;;;;5116679;27;20398;-86
2022/06/19 12:36:24;;;;;;;;;;;;;;;;;;5100993;27;20089;-83
2022/06/19 12:38:50;;;;;;;8.05;1.63;;;;;;;;;;5107709;28;19915;-83
2022/06/19 12:41:27;;;;;;;4.80;1.60;;;;;;;;;;5110274;28;20044;-82
2022/06/19 12:43:58;;;;;;;5.03;1.65;;;;;;;;;;5096798;28;20047;-83
2022/06/19 12:46:27;;;;;;;5.53;1.80;;;;;;;;;;5114083;27;20079;-83
2022/06/19 12:49:04;;;;;;;4.85;1.40;;;;;;;;;;5113010;27;20042;-85
2022/06/19 12:51:49;;;;;;;5.03;1.60;;;;;;;;;;5121441;27;20499;-82
2022/06/19 12:54:18;;;;;;;9.88;1.65;;;;;;;;;;5100441;27;20035;-82
2022/06/19 12:56:47;;;;;;;5.22;1.55;;;;;;;;;;5115547;27;20138;-82
2022/06/19 12:59:30;;;;;;;6.80;1.67;;;;;;;;;;5133142;27;20043;-84
2022/06/19 13:02:16;;;;;;;5.82;1.60;;;;;;;;;;5114675;27;20035;-83
2022/06/19 13:04:45;;;;;;;6.53;1.40;;;;;;;;;;5122149;27;20053;-83
2022/06/19 13:07:15;;;;;;;7.82;1.80;;;;;;;;;;5108299;27;20099;-82
2022/06/19 13:09:44;;;;;;;6.25;1.67;;;;;;;;;;5096814;28;20035;-82
2022/06/19 13:12:29;;;;;;;7.40;1.92;;;;;;;;;;5114024;27;20517;-82
2022/06/19 13:14:55;;;;;;;;;;;;;;;;;;5093730;28;20035;-82
2022/06/19 13:17:40;;;;;;;8.55;1.70;;;;;;;;;;5098226;28;19916;-82
2022/06/19 13:20:12;;;;;;;8.60;1.85;;;;;;;;;;5110692;28;20036;-83
2022/06/19 13:22:43;;;;;;;6.70;1.77;;;;;;;;;;5093440;28;20130;-83
2022/06/19 13:25:16;;;;;;;6.50;2.03;;;;;;;;;;5122512;27;20039;-84
2022/06/19 13:27:54;;;;;;;7.28;1.50;;;;;;;;;;5108928;28;20588;-83
2022/06/19 13:30:25;;;;;;;7.63;1.85;;;;;;;;;;5097390;27;20138;-83
2022/06/19 13:33:01;;;;;;;6.72;1.63;;;;;;;;;;5095543;28;20046;-83
2022/06/19 13:35:42;;;;;;;5.97;1.80;;;;;;;;;;5112835;27;20035;-83
2022/06/19 13:38:21;;;;;;;6.90;2.00;;;;;;;;;;5134565;27;20046;-82
2022/06/19 13:40:57;;;;;;;8.40;1.95;;;;;;;;;;5127939;27;20510;-82
2022/06/19 13:43:27;;;;;;;8.25;1.90;;;;;;;;;;5092568;28;20144;-82
2022/06/19 13:46:12;;;;;;;7.47;1.98;;;;;;;;;;5109464;28;20047;-83
2022/06/19 13:48:47;;;;;;;6.68;1.75;;;;;;;;;;5108267;28;20031;-83
2022/06/19 13:51:16;;;;;;;7.38;1.70;;;;;;;;;;5094821;28;20082;-83
2022/06/19 13:53:49;;;;;;;6.47;1.80;;;;;;;;;;5102336;28;20061;-82
2022/06/19 13:56:18;;;;;;;4.55;1.42;;;;;;;;;;5102584;28;20126;-82
2022/06/19 13:58:45;;;;;;;6.20;1.23;;;;;;;;;;5093966;28;20443;-82
2022/06/19 14:01:17;;;;;;;6.00;1.40;;;;;;;;;;5111756;28;20048;-82
2022/06/19 14:07:03;;;;;;;4.38;1.55;;;;;;;;;;5127687;27;20044;-83
2022/06/19 14:09:29;;;;;;;;;;;;;;;;;;5096741;28;20486;-85
2022/06/19 14:12:05;;;;;;;12.52;1.95;;;;;;;;;;5113203;28;19916;-83
2022/06/19 14:14:37;;;;;;;6.85;1.50;;;;;;;;;;5114942;27;20031;-85
2022/06/19 14:17:12;;;;;;;7.15;1.85;;;;;;;;;;5114156;28;20039;-82
2022/06/19 14:19:42;;;;;;;5.03;1.52;;;;;;;;;;5115787;28;20036;-83
2022/06/19 14:22:22;;;;;;;5.53;2.17;;;;;;;;;;5115166;28;20074;-82
2022/06/19 14:24:57;;;;;;;7.68;1.60;;;;;;;;;;5098461;28;20119;-82
2022/06/19 14:27:39;;;;;;;5.25;1.42;;;;;;;;;;5117236;27;20414;-83
2022/06/19 14:30:13;;;;;;;5.65;1.52;;;;;;;;;;5098384;28;20136;-81
2022/06/19 14:32:48;;;;;;;7.50;1.63;;;;;;;;;;5115941;28;20035;-82
2022/06/19 14:35:20;;;;;;;9.40;2.10;;;;;;;;;;5097947;28;20403;-82
2022/06/19 14:37:54;;;;;;;6.30;1.90;;;;;;;;;;5116608;28;20055;-82
2022/06/19 14:40:20;;;;;;;7.00;1.65;;;;;;;;;;5096721;28;20757;-83
2022/06/19 14:42:49;;;;;;;7.68;1.90;;;;;;;;;;5114506;28;20079;-83
2022/06/19 14:45:19;;;;;;;5.47;1.83;;;;;;;;;;5097133;28;20043;-83
2022/06/19 14:48:14;;;;;;;9.02;1.60;;;;;;;;;;5097736;28;20118;-82
2022/06/19 14:51:00;;;;;;;7.15;1.83;;;;;;;;;;5018984;28;20051;-82
2022/06/19 14:53:45;;;;;;;5.90;1.73;;;;;;;;;;5094002;28;20116;-82
2022/06/19 14:56:11;;;;;;;;;;;;;;;;;;5108336;28;20081;-83
2022/06/19 14:58:45;;;;;;;8.40;1.85;;;;;;;;;;5118319;27;20431;-84
2022/06/19 15:01:20;;;;;;;7.95;1.77;;;;;;;;;;5118086;27;20051;-82
2022/06/19 15:03:49;;;;;;;6.47;1.60;;;;;;;;;;5098951;27;20107;-84
2022/06/19 15:06:19;;;;;;;8.90;1.90;;;;;;;;;;5100000;28;20040;-82
2022/06/19 15:09:04;;;;;;;6.85;1.95;;;;;;;;;;5106035;28;20040;-86